createdAt,value
2023-01-10T00:00:37.322Z,100.00
2023-01-10T00:03:06.234Z,100.00
2023-01-10T00:05:33.307Z,100.00
2023-01-10T00:08:02.195Z,100.00
2023-01-10T00:10:29.584Z,100.00
2023-01-10T00:13:15.263Z,100.00
2023-01-10T00:15:42.496Z,98.63
2023-01-10T00:18:09.699Z,98.25
2023-01-10T00:20:36.835Z,99.30
2023-01-10T00:23:03.876Z,100.00
2023-01-10T00:25:33.439Z,100.00
2023-01-10T00:28:17.395Z,100.00
2023-01-10T00:30:44.450Z,99.71
2023-01-10T00:33:17.471Z,100.00
2023-01-10T00:35:44.459Z,100.00
2023-01-10T00:38:11.335Z,100.00
2023-01-10T00:40:38.250Z,100.00
2023-01-10T00:43:23.925Z,100.00
2023-01-10T00:45:50.837Z,100.00
2023-01-10T00:48:17.889Z,100.00
2023-01-10T00:50:46.454Z,100.00
2023-01-10T00:53:13.380Z,100.00
2023-01-10T00:55:41.026Z,100.00
2023-01-10T00:58:11.758Z,100.00
2023-01-10T01:00:39.090Z,100.00
2023-01-10T01:03:07.091Z,100.00
2023-01-10T01:05:39.924Z,100.00
2023-01-10T01:08:06.963Z,100.00
2023-01-10T01:10:34.076Z,100.00
2023-01-10T01:13:10.809Z,100.00
2023-01-10T01:15:38.500Z,100.00
2023-01-10T01:18:06.262Z,100.00
2023-01-10T01:20:33.643Z,100.00
2023-01-10T01:23:01.191Z,100.00
2023-01-10T01:25:28.087Z,100.00
2023-01-10T01:27:54.963Z,100.00
2023-01-10T01:30:21.860Z,100.00
2023-01-10T01:32:48.906Z,100.00
2023-01-10T01:35:16.851Z,100.00
2023-01-10T01:37:44.739Z,100.00
2023-01-10T01:40:16.643Z,100.00
2023-01-10T01:42:44.692Z,100.00
2023-01-10T01:45:14.763Z,100.00
2023-01-10T01:47:58.335Z,100.00
2023-01-10T01:50:31.570Z,100.00
2023-01-10T01:53:02.547Z,100.00
2023-01-10T01:55:33.135Z,100.00
2023-01-10T01:58:07.282Z,100.00
2023-01-10T02:00:35.624Z,100.00
2023-01-10T02:03:04.230Z,100.00
2023-01-10T02:05:34.240Z,100.00
2023-01-10T02:08:02.499Z,100.00
2023-01-10T02:10:49.042Z,100.00
2023-01-10T02:13:20.031Z,100.00
2023-01-10T02:15:46.966Z,100.00
2023-01-10T02:18:14.358Z,100.00
2023-01-10T02:21:32.345Z,100.00
2023-01-10T02:24:46.883Z,100.00
2023-01-10T02:27:22.903Z,100.00
2023-01-10T02:30:07.812Z,100.00
2023-01-10T02:32:50.555Z,100.00
2023-01-10T02:36:14.860Z,100.00
2023-01-10T02:39:02.827Z,100.00
2023-01-10T02:41:39.990Z,100.00
2023-01-10T02:44:21.363Z,100.00
2023-01-10T02:46:49.882Z,100.00
2023-01-10T02:49:16.805Z,100.00
2023-01-10T02:51:43.720Z,100.00
2023-01-10T02:54:20.110Z,100.00
2023-01-10T02:56:53.157Z,100.00
2023-01-10T02:59:38.301Z,100.00
2023-01-10T03:02:22.056Z,100.00
2023-01-10T03:05:16.344Z,100.00
2023-01-10T03:08:01.185Z,100.00
2023-01-10T03:10:39.944Z,100.00
2023-01-10T03:13:22.184Z,100.00
2023-01-10T03:15:50.258Z,100.00
2023-01-10T03:18:33.997Z,100.00
2023-01-10T03:21:05.192Z,100.00
2023-01-10T03:23:35.237Z,100.00
2023-01-10T03:26:05.232Z,100.00
2023-01-10T03:28:38.084Z,100.00
2023-01-10T03:31:11.388Z,100.00
2023-01-10T03:33:39.071Z,100.00
2023-01-10T03:36:28.414Z,100.00
2023-01-10T03:38:57.940Z,100.00
2023-01-10T03:41:49.604Z,100.00
2023-01-10T03:44:40.172Z,100.00
2023-01-10T03:47:13.756Z,100.00
2023-01-10T03:49:44.640Z,100.00
2023-01-10T03:52:15.829Z,100.00
2023-01-10T03:54:44.766Z,100.00
2023-01-10T03:57:22.950Z,100.00
2023-01-10T03:59:58.088Z,100.00
2023-01-10T04:02:30.865Z,100.00
2023-01-10T04:04:59.183Z,100.00
2023-01-10T04:07:26.709Z,100.00
2023-01-10T04:09:53.775Z,100.00
2023-01-10T04:12:20.847Z,100.00
2023-01-10T04:14:48.138Z,100.00
2023-01-10T04:17:16.633Z,100.00
2023-01-10T04:19:44.202Z,100.00
2023-01-10T04:22:11.808Z,100.00
2023-01-10T04:24:39.172Z,100.00
2023-01-10T04:27:07.638Z,100.00
2023-01-10T04:29:34.624Z,100.00
2023-01-10T04:32:01.546Z,100.00
2023-01-10T04:34:28.441Z,100.00
2023-01-10T04:36:55.382Z,100.00
2023-01-10T04:39:22.284Z,100.00
2023-01-10T04:41:49.814Z,100.00
2023-01-10T04:44:16.764Z,100.00
2023-01-10T04:46:43.618Z,100.00
2023-01-10T04:49:11.113Z,100.00
2023-01-10T04:51:38.511Z,100.00
2023-01-10T04:54:05.545Z,100.00
2023-01-10T04:56:32.436Z,100.00
2023-01-10T04:58:59.329Z,100.00
2023-01-10T05:01:26.565Z,100.00
2023-01-10T05:03:55.898Z,100.00
2023-01-10T05:06:24.352Z,100.00
2023-01-10T05:08:51.630Z,100.00
2023-01-10T05:11:18.523Z,100.00
2023-01-10T05:13:47.842Z,100.00
2023-01-10T05:16:15.614Z,100.00
2023-01-10T05:18:42.630Z,100.00
2023-01-10T05:21:11.840Z,100.00
2023-01-10T05:23:39.360Z,100.00
2023-01-10T05:26:12.234Z,100.00
2023-01-10T05:28:39.515Z,100.00
2023-01-10T05:31:12.547Z,100.00
2023-01-10T05:33:39.951Z,100.00
2023-01-10T05:36:07.493Z,100.00
2023-01-10T05:38:34.504Z,100.00
2023-01-10T05:41:01.671Z,100.00
2023-01-10T05:43:29.159Z,100.00
2023-01-10T05:45:56.367Z,100.00
2023-01-10T05:48:23.774Z,100.00
2023-01-10T05:50:53.029Z,100.00
2023-01-10T05:53:20.421Z,100.00
2023-01-10T05:55:55.305Z,100.00
2023-01-10T05:58:22.591Z,100.00
2023-01-10T06:00:49.753Z,100.00
2023-01-10T06:03:16.735Z,100.00
2023-01-10T06:05:43.730Z,100.00
2023-01-10T06:08:10.911Z,100.00
2023-01-10T06:10:37.923Z,100.00
2023-01-10T06:13:09.930Z,100.00
2023-01-10T06:15:37.471Z,100.00
2023-01-10T06:18:04.906Z,100.00
2023-01-10T06:20:32.074Z,100.00
2023-01-10T06:23:01.126Z,99.25
2023-01-10T06:25:29.457Z,100.00
2023-01-10T06:27:56.648Z,100.00
2023-01-10T06:30:23.709Z,99.76
2023-01-10T06:32:50.628Z,100.00
2023-01-10T06:35:18.229Z,100.00
2023-01-10T06:37:45.789Z,100.00
2023-01-10T06:40:12.928Z,100.00
2023-01-10T06:42:41.353Z,99.23
2023-01-10T06:45:09.003Z,98.63
2023-01-10T06:47:36.042Z,97.68
2023-01-10T06:50:03.651Z,96.97
2023-01-10T06:52:30.695Z,97.01
2023-01-10T06:54:57.614Z,94.49
2023-01-10T06:57:24.448Z,97.84
2023-01-10T06:59:52.124Z,98.85
2023-01-10T07:02:20.504Z,97.99
2023-01-10T07:04:49.354Z,96.21
2023-01-10T07:07:16.422Z,97.52
2023-01-10T07:09:43.432Z,97.96
2023-01-10T07:12:10.355Z,95.42
2023-01-10T07:14:37.326Z,93.28
2023-01-10T07:17:04.277Z,91.88
2023-01-10T07:19:31.338Z,92.48
2023-01-10T07:21:58.376Z,96.30
2023-01-10T07:24:25.277Z,95.59
2023-01-10T07:26:55.212Z,95.21
2023-01-10T07:29:22.288Z,94.64
2023-01-10T07:31:49.204Z,95.29
2023-01-10T07:34:16.216Z,94.33
2023-01-10T07:36:43.069Z,96.30
2023-01-10T07:39:10.181Z,93.68
2023-01-10T07:41:37.062Z,96.42
2023-01-10T07:44:04.092Z,94.53
2023-01-10T07:46:31.151Z,95.08
2023-01-10T07:48:58.193Z,94.93
2023-01-10T07:51:25.126Z,94.00
2023-01-10T07:53:51.993Z,95.50
2023-01-10T07:56:18.865Z,95.45
2023-01-10T07:58:46.537Z,93.50
2023-01-10T08:01:13.484Z,93.33
2023-01-10T08:03:40.703Z,93.40
2023-01-10T08:06:13.183Z,92.36
2023-01-10T08:08:41.283Z,90.90
2023-01-10T08:11:08.346Z,89.98
2023-01-10T08:13:35.212Z,90.04
2023-01-10T08:16:06.443Z,89.19
2023-01-10T08:18:33.607Z,89.96
2023-01-10T08:21:01.129Z,89.10
2023-01-10T08:23:28.041Z,88.79
2023-01-10T08:25:55.375Z,88.46
2023-01-10T08:28:22.358Z,88.42
2023-01-10T08:30:50.576Z,89.70
2023-01-10T08:33:17.643Z,88.42
2023-01-10T08:35:44.588Z,87.12
2023-01-10T08:38:12.131Z,87.34
2023-01-10T08:40:39.193Z,85.89
2023-01-10T08:43:09.968Z,86.18
2023-01-10T08:45:38.197Z,86.76
2023-01-10T08:48:06.193Z,88.21
2023-01-10T08:50:33.405Z,86.92
2023-01-10T08:53:01.346Z,86.20
2023-01-10T08:55:31.105Z,85.27
2023-01-10T08:58:01.379Z,84.66
2023-01-10T09:00:29.096Z,82.61
2023-01-10T09:02:56.172Z,82.92
2023-01-10T09:05:27.348Z,79.98
2023-01-10T09:07:59.571Z,78.78
2023-01-10T09:10:27.487Z,79.06
2023-01-10T09:12:57.412Z,77.23
2023-01-10T09:15:27.334Z,76.57
2023-01-10T09:17:56.442Z,76.24
2023-01-10T09:20:25.643Z,74.52
2023-01-10T09:22:52.898Z,76.09
2023-01-10T09:25:19.927Z,75.49
2023-01-10T09:27:46.961Z,76.84
2023-01-10T09:30:14.260Z,76.68
2023-01-10T09:32:41.208Z,77.06
2023-01-10T09:35:08.830Z,77.44
2023-01-10T09:37:35.912Z,78.77
2023-01-10T09:40:02.919Z,79.32
2023-01-10T09:43:04.771Z,80.72
2023-01-10T09:45:58.393Z,79.56
2023-01-10T09:48:46.468Z,78.38
2023-01-10T09:51:40.680Z,78.32
2023-01-10T09:54:32.487Z,76.98
2023-01-10T09:57:01.800Z,76.90
2023-01-10T09:59:38.040Z,75.51
2023-01-10T10:02:20.969Z,76.53
2023-01-10T10:05:18.304Z,73.97
2023-01-10T10:07:50.944Z,74.28
2023-01-10T10:10:27.137Z,75.82
2023-01-10T10:13:31.219Z,73.72
2023-01-10T10:16:17.363Z,73.14
2023-01-10T10:19:01.633Z,71.80
2023-01-10T10:21:49.174Z,72.98
2023-01-10T10:24:28.054Z,71.80
2023-01-10T10:27:08.677Z,72.25
2023-01-10T10:29:35.558Z,72.52
2023-01-10T10:32:22.181Z,72.25
2023-01-10T10:35:12.040Z,74.75
2023-01-10T10:37:48.853Z,74.47
2023-01-10T10:40:28.309Z,74.25
2023-01-10T10:42:57.354Z,75.34
2023-01-10T10:45:43.022Z,76.39
2023-01-10T10:48:12.831Z,75.84
2023-01-10T10:50:59.623Z,77.14
2023-01-10T10:53:27.087Z,77.20
2023-01-10T10:55:54.456Z,77.22
2023-01-10T10:58:21.608Z,78.46
2023-01-10T11:00:48.729Z,77.12
2023-01-10T11:03:31.360Z,76.44
2023-01-10T11:06:00.673Z,75.62
2023-01-10T11:08:29.630Z,77.69
2023-01-10T11:10:59.760Z,80.86
2023-01-10T11:13:42.194Z,81.92
2023-01-10T11:16:24.318Z,83.10
2023-01-10T11:19:15.580Z,82.14
2023-01-10T11:22:06.130Z,83.19
2023-01-10T11:24:36.733Z,85.13
2023-01-10T11:27:31.869Z,84.28
2023-01-10T11:30:17.716Z,83.47
2023-01-10T11:32:57.780Z,84.85
2023-01-10T11:35:32.729Z,84.61
2023-01-10T11:38:18.910Z,83.76
2023-01-10T11:41:07.083Z,83.62
2023-01-10T11:43:39.676Z,83.61
2023-01-10T11:46:13.092Z,83.68
2023-01-10T11:49:11.042Z,82.43
2023-01-10T11:51:50.786Z,81.04
2023-01-10T11:54:24.931Z,81.93
2023-01-10T11:57:25.946Z,82.02
2023-01-10T11:59:56.137Z,80.07
2023-01-10T12:02:27.932Z,81.11
2023-01-10T12:04:57.104Z,79.81
2023-01-10T12:07:24.083Z,79.24
2023-01-10T12:10:03.626Z,79.29
2023-01-10T12:12:35.227Z,77.72
2023-01-10T12:15:30.023Z,76.86
2023-01-10T12:18:00.212Z,76.81
2023-01-10T12:20:30.310Z,76.29
2023-01-10T12:23:06.569Z,75.97
2023-01-10T12:25:36.723Z,77.05
2023-01-10T12:28:04.595Z,76.65
2023-01-10T12:30:36.124Z,77.23
2023-01-10T12:33:10.731Z,78.00
2023-01-10T12:35:40.552Z,77.22
2023-01-10T12:38:46.775Z,77.84
2023-01-10T12:41:39.459Z,76.99
2023-01-10T12:44:16.248Z,76.92
2023-01-10T12:47:08.715Z,77.82
2023-01-10T12:49:46.962Z,77.85
2023-01-10T12:52:58.092Z,77.58
2023-01-10T12:55:29.623Z,77.33
2023-01-10T12:58:00.357Z,77.09
2023-01-10T13:00:40.575Z,74.76
2023-01-10T13:03:20.193Z,76.17
2023-01-10T13:05:49.968Z,77.06
2023-01-10T13:08:21.295Z,77.24
2023-01-10T13:10:51.769Z,79.63
2023-01-10T13:13:40.639Z,78.73
2023-01-10T13:16:29.259Z,80.22
2023-01-10T13:19:11.121Z,77.96
2023-01-10T13:21:40.951Z,77.83
2023-01-10T13:24:24.171Z,79.35
2023-01-10T13:27:03.326Z,79.70
2023-01-10T13:29:42.836Z,80.06
2023-01-10T13:32:23.591Z,80.16
2023-01-10T13:34:51.653Z,81.08
2023-01-10T13:37:50.654Z,83.51
2023-01-10T13:40:28.403Z,88.72
2023-01-10T13:43:34.766Z,89.08
2023-01-10T13:46:16.795Z,91.85
2023-01-10T13:48:49.665Z,95.07
2023-01-10T13:51:19.748Z,95.26
2023-01-10T13:53:51.935Z,95.42
2023-01-10T13:56:34.835Z,94.01
2023-01-10T13:59:18.880Z,95.90
2023-01-10T14:02:10.837Z,95.39
2023-01-10T14:04:45.053Z,95.45
2023-01-10T14:07:45.207Z,96.69
2023-01-10T14:10:21.237Z,95.86
2023-01-10T14:12:59.419Z,94.42
2023-01-10T14:15:34.263Z,95.91
2023-01-10T14:18:08.251Z,94.37
2023-01-10T14:20:36.508Z,95.41
2023-01-10T14:23:19.530Z,94.07
2023-01-10T14:25:52.337Z,94.09
2023-01-10T14:28:26.675Z,94.13
2023-01-10T14:31:05.815Z,92.81
2023-01-10T14:33:34.339Z,91.16
2023-01-10T14:36:10.157Z,89.35
2023-01-10T14:38:39.032Z,90.91
2023-01-10T14:41:12.759Z,91.87
2023-01-10T14:44:13.841Z,93.95
2023-01-10T14:46:47.944Z,91.61
2023-01-10T14:49:20.697Z,97.51
2023-01-10T14:51:50.659Z,100.00
2023-01-10T14:54:20.625Z,100.00
2023-01-10T14:56:52.475Z,100.00
2023-01-10T14:59:38.058Z,100.00
2023-01-10T15:02:15.296Z,100.00
2023-01-10T15:04:57.213Z,100.00
2023-01-10T15:07:25.515Z,100.00
2023-01-10T15:09:56.571Z,100.00
2023-01-10T15:12:25.766Z,100.00
2023-01-10T15:15:13.741Z,100.00
2023-01-10T15:17:42.351Z,100.00
2023-01-10T15:20:18.081Z,100.00
2023-01-10T15:22:50.289Z,100.00
2023-01-10T15:25:19.985Z,100.00
2023-01-10T15:27:49.648Z,100.00
2023-01-10T15:30:22.107Z,100.00
2023-01-10T15:33:01.875Z,100.00
2023-01-10T15:35:36.178Z,100.00
2023-01-10T15:38:16.546Z,100.00
2023-01-10T15:40:44.454Z,100.00
2023-01-10T15:43:17.186Z,100.00
2023-01-10T15:45:45.885Z,100.00
2023-01-10T15:48:28.042Z,100.00
2023-01-10T15:50:59.752Z,100.00
2023-01-10T15:53:52.105Z,100.00
2023-01-10T15:56:28.992Z,100.00
2023-01-10T15:58:57.819Z,100.00
2023-01-10T16:01:27.615Z,100.00
2023-01-10T16:03:58.660Z,100.00
2023-01-10T16:06:33.887Z,100.00
2023-01-10T16:09:06.056Z,100.00
2023-01-10T16:12:06.593Z,100.00
2023-01-10T16:14:36.609Z,100.00
2023-01-10T16:17:05.060Z,100.00
2023-01-10T16:19:32.184Z,100.00
2023-01-10T16:22:01.394Z,100.00
2023-01-10T16:24:37.036Z,100.00
2023-01-10T16:27:06.419Z,100.00
2023-01-10T16:29:34.304Z,100.00
2023-01-10T16:32:01.410Z,100.00
2023-01-10T16:34:28.338Z,100.00
2023-01-10T16:36:55.261Z,100.00
2023-01-10T16:39:24.077Z,100.00
2023-01-10T16:42:09.769Z,100.00
2023-01-10T16:44:36.722Z,100.00
2023-01-10T16:47:06.745Z,100.00
2023-01-10T16:49:34.456Z,100.00
2023-01-10T16:52:01.317Z,100.00
2023-01-10T16:54:28.636Z,100.00
2023-01-10T16:56:56.119Z,100.00
2023-01-10T16:59:23.136Z,100.00
2023-01-10T17:01:56.902Z,100.00
2023-01-10T17:04:28.183Z,100.00
2023-01-10T17:06:56.731Z,100.00
2023-01-10T17:09:29.245Z,100.00
2023-01-10T17:12:04.345Z,100.00
2023-01-10T17:14:36.227Z,100.00
2023-01-10T17:17:04.531Z,100.00
2023-01-10T17:19:31.851Z,100.00
2023-01-10T17:22:00.452Z,100.00
2023-01-10T17:24:30.019Z,100.00
2023-01-10T17:26:57.196Z,100.00
2023-01-10T17:29:24.114Z,100.00
2023-01-10T17:31:51.122Z,100.00
2023-01-10T17:34:18.119Z,100.00
2023-01-10T17:36:45.025Z,100.00
2023-01-10T17:39:11.944Z,99.78
2023-01-10T17:41:38.804Z,99.27
2023-01-10T17:44:05.893Z,99.10
2023-01-10T17:46:32.951Z,97.20
2023-01-10T17:49:02.176Z,97.98
2023-01-10T17:51:29.168Z,98.33
2023-01-10T17:53:56.535Z,97.28
2023-01-10T17:56:24.657Z,96.96
2023-01-10T17:58:53.096Z,97.17
2023-01-10T18:01:25.174Z,98.99
2023-01-10T18:03:52.931Z,100.00
2023-01-10T18:06:25.154Z,100.00
2023-01-10T18:08:53.816Z,100.00
2023-01-10T18:11:25.252Z,100.00
2023-01-10T18:13:52.360Z,100.00
2023-01-10T18:16:19.333Z,100.00
2023-01-10T18:18:46.304Z,100.00
2023-01-10T18:21:15.820Z,100.00
2023-01-10T18:23:42.933Z,100.00
2023-01-10T18:26:12.190Z,100.00
2023-01-10T18:28:42.781Z,100.00
2023-01-10T18:31:16.367Z,100.00
2023-01-10T18:33:44.393Z,100.00
2023-01-10T18:36:21.429Z,100.00
2023-01-10T18:38:49.131Z,100.00
2023-01-10T18:41:16.879Z,100.00
2023-01-10T18:43:44.281Z,100.00
2023-01-10T18:46:14.469Z,100.00
2023-01-10T18:48:41.627Z,100.00
2023-01-10T18:51:10.138Z,100.00
2023-01-10T18:53:37.158Z,100.00
2023-01-10T18:56:05.345Z,100.00
2023-01-10T18:58:34.877Z,100.00
2023-01-10T19:01:14.220Z,100.00
2023-01-10T19:03:41.891Z,100.00
2023-01-10T19:06:11.343Z,100.00
2023-01-10T19:08:41.540Z,100.00
2023-01-10T19:11:14.774Z,100.00
2023-01-10T19:13:43.914Z,100.00
2023-01-10T19:16:18.438Z,100.00
2023-01-10T19:18:53.598Z,100.00
2023-01-10T19:21:21.164Z,100.00
2023-01-10T19:23:50.519Z,100.00
2023-01-10T19:26:18.170Z,100.00
2023-01-10T19:28:46.697Z,100.00
2023-01-10T19:31:21.745Z,100.00
2023-01-10T19:33:50.637Z,100.00
2023-01-10T19:36:22.990Z,100.00
2023-01-10T19:38:57.829Z,100.00
2023-01-10T19:41:26.506Z,100.00
2023-01-10T19:43:58.463Z,100.00
2023-01-10T19:46:26.482Z,100.00
2023-01-10T19:48:55.966Z,100.00
2023-01-10T19:51:22.975Z,100.00
2023-01-10T19:53:50.027Z,100.00
2023-01-10T19:56:21.940Z,100.00
2023-01-10T19:58:50.636Z,100.00
2023-01-10T20:01:20.815Z,100.00
2023-01-10T20:03:48.001Z,100.00
2023-01-10T20:06:18.543Z,100.00
2023-01-10T20:08:46.667Z,100.00
2023-01-10T20:11:15.033Z,100.00
2023-01-10T20:13:46.038Z,100.00
2023-01-10T20:16:15.697Z,100.00
2023-01-10T20:18:44.097Z,100.00
2023-01-10T20:21:12.847Z,100.00
2023-01-10T20:23:40.720Z,100.00
2023-01-10T20:26:11.890Z,100.00
2023-01-10T20:28:39.763Z,100.00
2023-01-10T20:31:17.598Z,100.00
2023-01-10T20:33:44.580Z,100.00
2023-01-10T20:36:14.363Z,100.00
2023-01-10T20:38:41.311Z,100.00
2023-01-10T20:41:15.585Z,100.00
2023-01-10T20:43:44.770Z,100.00
2023-01-10T20:46:14.395Z,100.00
2023-01-10T20:48:42.041Z,100.00
2023-01-10T20:51:12.923Z,100.00
2023-01-10T20:53:40.070Z,100.00
2023-01-10T20:56:12.897Z,100.00
2023-01-10T20:58:39.965Z,100.00
2023-01-10T21:01:07.990Z,100.00
2023-01-10T21:03:35.269Z,100.00
2023-01-10T21:06:02.766Z,100.00
2023-01-10T21:08:29.841Z,100.00
2023-01-10T21:10:57.618Z,100.00
2023-01-10T21:13:24.649Z,100.00
2023-01-10T21:15:55.291Z,100.00
2023-01-10T21:18:27.108Z,100.00
2023-01-10T21:20:55.748Z,100.00
2023-01-10T21:23:25.085Z,100.00
2023-01-10T21:25:53.827Z,100.00
2023-01-10T21:28:21.325Z,100.00
2023-01-10T21:30:48.367Z,100.00
2023-01-10T21:33:15.415Z,100.00
2023-01-10T21:35:42.406Z,100.00
2023-01-10T21:38:09.324Z,100.00
2023-01-10T21:40:36.384Z,100.00
2023-01-10T21:43:03.420Z,100.00
2023-01-10T21:45:30.483Z,100.00
2023-01-10T21:47:57.353Z,100.00
2023-01-10T21:50:24.229Z,100.00
2023-01-10T21:52:51.219Z,100.00
2023-01-10T21:55:18.258Z,100.00
2023-01-10T21:57:45.520Z,100.00
2023-01-10T22:00:13.016Z,100.00
2023-01-10T22:02:41.093Z,100.00
2023-01-10T22:05:10.237Z,100.00
2023-01-10T22:07:38.283Z,100.00
2023-01-10T22:10:07.167Z,100.00
2023-01-10T22:12:34.188Z,100.00
2023-01-10T22:15:01.126Z,100.00
2023-01-10T22:17:28.029Z,100.00
2023-01-10T22:19:54.987Z,100.00
2023-01-10T22:22:22.005Z,100.00
2023-01-10T22:24:48.852Z,100.00
2023-01-10T22:27:16.238Z,100.00
2023-01-10T22:29:43.713Z,100.00
2023-01-10T22:32:10.682Z,100.00
2023-01-10T22:34:37.710Z,100.00
2023-01-10T22:37:04.796Z,100.00
2023-01-10T22:39:31.943Z,100.00
2023-01-10T22:41:58.875Z,100.00
2023-01-10T22:44:27.234Z,100.00
2023-01-10T22:46:55.693Z,100.00
2023-01-10T22:49:23.149Z,100.00
2023-01-10T22:51:50.735Z,100.00
2023-01-10T22:54:18.128Z,100.00
2023-01-10T22:56:46.640Z,100.00
2023-01-10T22:59:14.388Z,100.00
2023-01-10T23:01:41.455Z,100.00
2023-01-10T23:04:08.741Z,100.00
2023-01-10T23:06:35.799Z,100.00
2023-01-10T23:09:02.806Z,100.00
2023-01-10T23:11:29.804Z,100.00
2023-01-10T23:13:56.705Z,100.00
2023-01-10T23:16:32.829Z,100.00
2023-01-10T23:19:00.350Z,100.00
2023-01-10T23:21:29.445Z,100.00
2023-01-10T23:23:57.012Z,100.00
2023-01-10T23:26:24.224Z,100.00
2023-01-10T23:28:51.872Z,100.00
2023-01-10T23:31:21.534Z,100.00
2023-01-10T23:33:49.261Z,100.00
2023-01-10T23:36:17.037Z,100.00
2023-01-10T23:38:44.418Z,100.00
2023-01-10T23:41:11.823Z,100.00
2023-01-10T23:43:38.781Z,100.00
2023-01-10T23:46:06.878Z,100.00
2023-01-10T23:48:34.294Z,100.00
2023-01-10T23:51:01.335Z,100.00
2023-01-10T23:53:28.276Z,100.00
2023-01-10T23:55:55.335Z,100.00
2023-01-10T23:58:22.308Z,100.00
